createdAt,value
2023-03-26T02:49:53.500Z,4.35
2023-03-26T02:52:26.610Z,3.20
2023-03-26T02:54:57.183Z,5.00
2023-03-26T02:57:26.192Z,6.07
2023-03-26T03:00:17.297Z,6.25
2023-03-26T03:02:50.523Z,4.82
2023-03-26T03:05:33.733Z,6.63
2023-03-26T03:08:18.356Z,3.92
2023-03-26T03:11:22.218Z,4.85
2023-03-26T03:13:52.021Z,5.18
2023-03-26T03:16:22.611Z,5.45
2023-03-26T03:18:54.661Z,4.85
2023-03-26T03:21:28.313Z,2.92
2023-03-26T03:23:56.263Z,6.10
2023-03-26T03:26:30.729Z,6.30
2023-03-26T03:29:03.274Z,3.20
2023-03-26T03:31:30.843Z,3.05
2023-03-26T03:34:03.046Z,4.97
2023-03-26T03:36:33.524Z,15.45
2023-03-26T03:39:07.352Z,7.75
2023-03-26T03:41:35.730Z,6.50
2023-03-26T03:44:06.150Z,8.23
2023-03-26T03:46:34.602Z,6.25
2023-03-26T03:49:02.382Z,8.10
2023-03-26T03:51:35.231Z,10.07
2023-03-26T03:54:13.115Z,11.90
2023-03-26T03:56:47.428Z,6.85
2023-03-26T03:59:15.512Z,7.80
2023-03-26T04:01:46.787Z,5.80
2023-03-26T04:04:24.724Z,7.13
2023-03-26T04:06:57.953Z,10.38
2023-03-26T04:09:28.587Z,9.13
2023-03-26T04:12:00.252Z,11.75
2023-03-26T04:14:42.243Z,8.02
2023-03-26T04:17:15.435Z,7.70
2023-03-26T04:19:44.250Z,8.85
2023-03-26T04:22:13.468Z,9.07
2023-03-26T04:24:54.453Z,12.93
2023-03-26T04:27:38.134Z,6.80
2023-03-26T04:30:20.912Z,6.88
2023-03-26T04:33:06.445Z,9.98
2023-03-26T04:35:37.983Z,7.10
2023-03-26T04:38:09.796Z,10.27
2023-03-26T04:40:39.777Z,8.75
2023-03-26T04:43:35.640Z,14.97
2023-03-26T04:46:05.567Z,9.50
2023-03-26T04:48:41.493Z,7.90
2023-03-26T04:51:10.213Z,9.32
2023-03-26T04:53:37.726Z,8.52
2023-03-26T04:56:59.596Z,9.70
2023-03-26T04:59:41.333Z,12.90
2023-03-26T05:02:13.076Z,8.88
2023-03-26T05:04:57.195Z,10.55
2023-03-26T05:07:27.715Z,9.57
2023-03-26T05:09:57.533Z,6.18
2023-03-26T05:12:43.180Z,9.98
2023-03-26T05:15:16.062Z,11.13
2023-03-26T05:18:08.624Z,14.15
2023-03-26T05:20:41.617Z,6.90
2023-03-26T05:23:10.722Z,8.55
2023-03-26T05:25:49.039Z,9.05
2023-03-26T05:28:20.810Z,7.30
2023-03-26T05:30:55.823Z,8.38
2023-03-26T05:33:24.931Z,9.05
2023-03-26T05:36:15.435Z,5.40
2023-03-26T05:38:53.959Z,10.40
2023-03-26T05:41:40.920Z,6.55
2023-03-26T05:44:07.944Z,7.43
2023-03-26T05:46:35.210Z,8.80
2023-03-26T05:49:02.344Z,7.55
2023-03-26T05:51:33.402Z,9.98
2023-03-26T05:54:19.802Z,12.10
2023-03-26T05:57:05.318Z,7.82
2023-03-26T05:59:51.041Z,7.47
2023-03-26T06:02:36.842Z,8.00
2023-03-26T06:05:35.441Z,8.90
2023-03-26T06:08:13.478Z,11.00
2023-03-26T06:10:49.800Z,7.82
2023-03-26T06:13:17.940Z,11.52
2023-03-26T06:15:46.553Z,10.95
2023-03-26T06:18:25.133Z,8.18
2023-03-26T06:21:18.447Z,8.32
2023-03-26T06:23:56.118Z,9.05
2023-03-26T06:26:47.150Z,7.80
2023-03-26T06:32:20.124Z,7.30
2023-03-26T14:39:09.350Z,18.80
2023-03-26T14:41:53.620Z,13.63
2023-03-26T14:44:49.812Z,14.40
2023-03-26T14:47:19.157Z,15.23
2023-03-26T14:50:11.888Z,17.55
2023-03-26T14:52:46.685Z,17.13
2023-03-26T14:55:52.099Z,21.80
2023-03-26T14:58:27.976Z,18.48
2023-03-26T15:01:19.356Z,18.90
2023-03-26T15:04:22.695Z,27.20
2023-03-26T15:07:18.759Z,23.83
2023-03-26T15:10:14.271Z,18.00
2023-03-26T15:13:20.104Z,16.42
2023-03-26T15:16:18.198Z,20.55
2023-03-26T15:18:56.882Z,23.55
2023-03-26T15:21:54.390Z,16.10
2023-03-26T15:24:27.472Z,18.30
2023-03-26T15:26:57.517Z,19.67
2023-03-26T15:29:58.687Z,25.98
2023-03-26T15:32:41.062Z,19.30
2023-03-26T15:35:31.386Z,16.00
2023-03-26T15:38:34.604Z,25.02
2023-03-26T15:41:13.822Z,29.33
2023-03-26T15:44:23.304Z,25.92
2023-03-26T15:47:26.165Z,19.83
2023-03-26T15:50:14.813Z,24.10
2023-03-26T15:52:54.388Z,26.77
2023-03-26T15:56:04.609Z,24.77
2023-03-26T15:58:45.915Z,19.90
2023-03-26T16:01:34.085Z,20.25
2023-03-26T16:04:30.935Z,17.48
2023-03-26T16:07:29.067Z,22.23
2023-03-26T16:10:19.617Z,21.58
2023-03-26T16:13:31.384Z,23.55
2023-03-26T16:16:04.318Z,22.65
2023-03-26T16:18:38.571Z,20.63
2023-03-26T16:21:31.466Z,23.10
2023-03-26T16:24:21.949Z,24.83
2023-03-26T16:26:51.966Z,27.02
2023-03-26T16:29:24.115Z,25.08
2023-03-26T16:32:09.445Z,31.73
2023-03-26T16:34:53.280Z,32.85
2023-03-26T16:37:33.733Z,18.50
2023-03-26T16:40:23.161Z,8.57
2023-03-26T16:43:17.906Z,5.50
2023-03-26T16:46:06.460Z,5.45
2023-03-26T16:49:14.546Z,4.85
2023-03-26T16:51:59.925Z,4.30
2023-03-26T16:54:55.785Z,5.32
2023-03-26T16:57:26.114Z,4.72
2023-03-26T17:00:05.737Z,3.97
2023-03-26T17:02:48.058Z,3.55
2023-03-26T17:05:25.394Z,6.47
2023-03-26T17:08:05.579Z,2.42
2023-03-26T17:11:27.946Z,3.47
2023-03-26T17:14:22.160Z,3.83
2023-03-26T17:19:46.259Z,5.03
2023-03-26T17:22:25.309Z,2.00
2023-03-26T17:27:48.324Z,6.10
2023-03-26T17:30:53.078Z,3.92
2023-03-26T17:33:38.903Z,3.03
2023-03-26T17:36:41.995Z,3.97
2023-03-26T17:39:24.302Z,4.78
2023-03-26T17:42:11.327Z,5.43
2023-03-26T17:44:55.768Z,3.85
2023-03-26T17:47:25.749Z,3.63
2023-03-26T17:50:02.904Z,4.63
2023-03-26T17:52:56.979Z,4.00
2023-03-26T17:55:31.128Z,4.97
2023-03-26T17:58:01.139Z,6.40
2023-03-26T18:00:58.397Z,9.00
2023-03-26T18:03:41.176Z,7.63
2023-03-26T18:06:10.971Z,5.85
2023-03-26T18:09:39.713Z,4.90
2023-03-26T18:12:25.576Z,2.72
2023-03-26T18:15:07.742Z,4.68
2023-03-26T18:17:46.490Z,3.90
2023-03-26T18:20:28.319Z,2.90
2023-03-26T18:22:55.930Z,4.85
2023-03-26T18:25:33.738Z,4.10
2023-03-26T18:28:04.067Z,6.28
2023-03-26T18:30:31.192Z,6.65
2023-03-26T18:33:14.336Z,12.63
2023-03-26T18:35:59.536Z,11.13
2023-03-26T18:38:34.946Z,8.32
2023-03-26T18:41:05.901Z,7.65
2023-03-26T18:43:35.547Z,7.18
2023-03-26T18:46:13.744Z,7.38
2023-03-26T18:48:41.404Z,6.55
2023-03-26T18:51:08.705Z,6.60
2023-03-26T18:53:54.971Z,5.35
2023-03-26T18:56:53.077Z,10.10
2023-03-26T18:59:27.895Z,18.15
2023-03-26T19:02:00.162Z,33.05
2023-03-26T19:04:31.406Z,13.73
2023-03-26T19:06:59.355Z,10.30
2023-03-26T19:09:32.105Z,9.18
2023-03-26T19:12:17.093Z,10.52
2023-03-26T19:15:12.249Z,8.65
2023-03-26T19:17:46.612Z,8.93
2023-03-26T19:20:21.669Z,13.07
2023-03-26T19:22:49.841Z,8.80
2023-03-26T19:25:25.803Z,7.70
2023-03-26T19:27:52.857Z,7.57
2023-03-26T19:30:31.888Z,9.02
2023-03-26T19:33:14.189Z,5.93
2023-03-26T19:35:42.748Z,7.47
2023-03-26T19:38:29.390Z,5.25
2023-03-26T19:40:58.076Z,15.90
2023-03-26T19:43:26.276Z,16.77
2023-03-26T19:45:59.893Z,11.27
2023-03-26T19:48:46.710Z,14.18
2023-03-26T19:51:21.052Z,8.48
2023-03-26T19:53:55.925Z,10.27
2023-03-26T19:56:23.121Z,14.52
2023-03-26T19:58:50.722Z,8.35
2023-03-26T20:01:29.481Z,11.48
2023-03-26T20:04:00.927Z,8.25
2023-03-26T20:06:43.225Z,11.10
2023-03-26T20:09:12.850Z,6.55
2023-03-26T20:11:40.892Z,5.15
2023-03-26T20:14:17.307Z,5.20
2023-03-26T20:16:45.375Z,6.40
2023-03-26T20:19:14.325Z,11.32
2023-03-26T20:21:42.209Z,6.50
2023-03-26T20:24:15.702Z,5.65
2023-03-26T20:26:43.143Z,8.73
2023-03-26T20:29:14.438Z,6.35
2023-03-26T20:31:42.644Z,7.15
2023-03-26T20:34:21.911Z,7.68
2023-03-26T20:36:55.085Z,7.90
2023-03-26T20:39:24.261Z,5.50
2023-03-26T20:41:53.628Z,6.75
2023-03-26T20:44:22.581Z,5.93
2023-03-26T20:46:50.447Z,4.53
2023-03-26T20:49:18.394Z,12.95
2023-03-26T20:51:46.557Z,25.30
2023-03-26T20:54:19.288Z,15.95
2023-03-26T20:56:47.868Z,10.23
2023-03-26T20:59:21.715Z,6.63
2023-03-26T21:01:50.087Z,4.85
2023-03-26T21:04:17.879Z,10.23
2023-03-26T21:06:45.629Z,5.55
2023-03-26T21:09:17.815Z,4.88
2023-03-26T21:11:54.883Z,5.00
2023-03-26T21:14:41.335Z,6.18
2023-03-26T21:17:18.760Z,7.75
2023-03-26T21:19:47.212Z,5.53
2023-03-26T21:22:49.516Z,7.28
2023-03-26T21:25:22.793Z,6.22
2023-03-26T21:28:06.131Z,5.38
2023-03-26T21:30:36.674Z,7.97
2023-03-26T21:33:05.349Z,7.07
2023-03-26T21:35:34.813Z,6.28
2023-03-26T21:38:04.512Z,5.07
2023-03-26T21:40:35.145Z,7.50
2023-03-26T21:43:02.446Z,5.43
2023-03-26T21:45:30.156Z,19.30
2023-03-26T21:47:57.505Z,10.73
2023-03-26T21:50:24.676Z,5.18
2023-03-26T21:52:52.269Z,4.43
2023-03-26T21:55:21.763Z,6.63
2023-03-26T21:58:04.660Z,5.80
2023-03-26T22:00:55.801Z,4.10
2023-03-26T22:03:33.156Z,4.75
2023-03-26T22:06:11.460Z,5.35
2023-03-26T22:08:40.818Z,6.43
2023-03-26T22:11:10.389Z,3.80
2023-03-26T22:13:40.359Z,6.75
2023-03-26T22:16:09.119Z,5.10
2023-03-26T22:18:36.415Z,7.13
2023-03-26T22:21:04.852Z,8.23
2023-03-26T22:23:36.082Z,7.22
2023-03-26T22:26:04.313Z,8.40
2023-03-26T22:28:31.534Z,6.03
2023-03-26T22:30:59.648Z,5.80
2023-03-26T22:33:27.049Z,3.60
2023-03-26T22:35:56.080Z,6.97
2023-03-26T22:38:25.599Z,11.57
2023-03-26T22:40:57.324Z,13.48
2023-03-26T22:43:24.609Z,10.85
2023-03-26T22:45:53.682Z,4.10
2023-03-26T22:48:23.445Z,3.88
2023-03-26T22:51:06.635Z,5.28
2023-03-26T22:53:33.961Z,5.53
2023-03-26T22:56:01.396Z,4.90
2023-03-26T22:58:33.165Z,5.97
2023-03-26T23:01:09.433Z,5.22
2023-03-26T23:03:37.171Z,2.95
2023-03-26T23:06:06.956Z,3.38
2023-03-26T23:08:35.077Z,4.72
2023-03-26T23:11:02.145Z,3.42
2023-03-26T23:13:29.117Z,3.90
2023-03-26T23:15:59.324Z,2.42
2023-03-26T23:18:26.379Z,3.85
2023-03-26T23:20:55.645Z,6.15
2023-03-26T23:23:30.080Z,3.97
2023-03-26T23:25:59.151Z,4.22
2023-03-26T23:28:27.533Z,4.43
2023-03-26T23:30:55.315Z,3.60
2023-03-26T23:33:25.100Z,3.53
2023-03-26T23:36:00.659Z,3.22
2023-03-26T23:38:44.040Z,3.25
2023-03-26T23:41:16.495Z,2.95
2023-03-26T23:43:53.493Z,7.28
2023-03-26T23:46:23.602Z,4.10
2023-03-26T23:48:51.220Z,3.63
2023-03-26T23:51:22.311Z,2.50
2023-03-26T23:53:49.666Z,4.88
2023-03-26T23:56:17.231Z,3.05
2023-03-26T23:58:44.597Z,3.42
